Time;durP1;ratioP1;P1;durP2;ratioP2;P2;SDS_P1;SDS_P2;PMS_P1;PMS_P2;Temp;Humidity;BMP_temperature;BMP_pressure;BME280_temperature;BME280_humidity;BME280_pressure;Samples;Min_cycle;Max_cycle;Signal;HPM_P1;HPM_P2
2021/01/04 00:01:51;;;;;;;1999.90;999.90;;;3.40;99.90;;;;;;4996389;28;20205;-82
2021/01/04 00:04:35;;;;;;;1999.90;999.90;;;3.30;99.90;;;;;;5002906;28;20189;-82
2021/01/04 00:07:19;;;;;;;1999.90;999.90;;;3.30;99.90;;;;;;5004272;28;20172;-82
2021/01/04 00:10:07;;;;;;;1999.90;999.90;;;3.30;99.90;;;;;;5020558;28;20560;-82
2021/01/04 00:12:55;;;;;;;1999.90;999.90;;;3.30;99.90;;;;;;5020503;28;20169;-82
2021/01/04 00:15:29;;;;;;;1999.90;999.90;;;3.30;99.90;;;;;;5020195;28;20178;-82
2021/01/04 00:17:57;;;;;;;1999.90;999.90;;;3.30;99.90;;;;;;5020612;28;20196;-82
2021/01/04 00:20:41;;;;;;;1999.90;999.90;;;3.30;99.90;;;;;;5019489;28;20172;-82
2021/01/04 00:23:33;;;;;;;1999.90;999.90;;;3.30;99.90;;;;;;5002941;28;20201;-82
2021/01/04 00:26:37;;;;;;;1999.90;999.90;;;3.30;99.90;;;;;;5020684;28;20281;-82
2021/01/04 00:29:03;;;;;;;1999.90;999.90;;;3.30;99.90;;;;;;5002462;28;20532;-82
2021/01/04 00:31:38;;;;;;;1999.90;999.90;;;3.30;99.90;;;;;;5003861;28;20162;-82
2021/01/04 00:34:07;;;;;;;1999.90;999.90;;;3.30;99.90;;;;;;5022195;28;20490;-82
2021/01/04 00:36:39;;;;;;;1999.90;999.90;;;3.30;99.90;;;;;;5020381;28;20197;-82
2021/01/04 00:39:24;;;;;;;1999.90;999.90;;;3.30;99.90;;;;;;5019628;28;20154;-82
2021/01/04 00:41:58;;;;;;;1999.90;999.90;;;3.30;99.90;;;;;;5020336;28;20153;-82
2021/01/04 00:44:54;;;;;;;1999.90;999.90;;;3.30;99.90;;;;;;5019810;28;20173;-82
2021/01/04 00:47:58;;;;;;;1999.90;999.90;;;3.30;99.90;;;;;;5019776;28;20192;-82
2021/01/04 00:50:48;;;;;;;1999.90;999.90;;;3.30;99.90;;;;;;5019929;28;20154;-82
2021/01/04 00:53:22;;;;;;;1999.90;999.90;;;3.30;99.90;;;;;;5002264;28;20173;-82
2021/01/04 00:56:07;;;;;;;1999.90;999.90;;;3.30;99.90;;;;;;5019846;28;20160;-82
2021/01/04 00:58:47;;;;;;;1999.90;999.90;;;3.30;99.90;;;;;;5019501;28;20174;-82
2021/01/04 01:01:15;;;;;;;1999.90;999.90;;;3.30;99.90;;;;;;5019378;28;20648;-82
2021/01/04 01:04:02;;;;;;;1999.90;999.90;;;3.20;99.90;;;;;;5001952;28;20694;-82
2021/01/04 01:06:36;;;;;;;1999.90;999.90;;;3.30;99.90;;;;;;5019520;28;20173;-82
2021/01/04 01:09:05;;;;;;;1999.90;999.90;;;3.20;99.90;;;;;;5019870;28;20170;-82
2021/01/04 01:11:36;;;;;;;1999.90;999.90;;;3.10;99.90;;;;;;5002370;28;20169;-82
2021/01/04 01:14:20;;;;;;;1999.90;999.90;;;3.10;99.90;;;;;;5001325;28;20189;-82
2021/01/04 01:17:07;;;;;;;1999.90;999.90;;;3.20;99.90;;;;;;5019417;28;20668;-82
2021/01/04 01:19:45;;;;;;;1999.90;999.90;;;3.20;99.90;;;;;;5001788;28;20162;-82
2021/01/04 01:22:19;;;;;;;1999.90;999.90;;;3.10;99.90;;;;;;5019040;28;20260;-82
2021/01/04 01:24:45;;;;;;;1999.90;999.90;;;3.20;99.90;;;;;;5001462;28;20189;-82
2021/01/04 01:27:23;;;;;;;1999.90;999.90;;;3.20;99.90;;;;;;5019342;28;20584;-82
2021/01/04 01:30:19;;;;;;;1999.90;999.90;;;3.30;99.90;;;;;;5019518;28;20154;-82
2021/01/04 01:33:15;;;;;;;1999.90;999.90;;;3.00;99.90;;;;;;5019365;28;20222;-82
2021/01/04 01:35:50;;;;;;;1999.90;999.90;;;3.10;99.90;;;;;;5019798;28;20159;-82
2021/01/04 01:38:24;;;;;;;1999.90;999.90;;;3.10;99.90;;;;;;5019762;28;20160;-83
2021/01/04 01:41:11;;;;;;;1999.90;999.90;;;3.10;99.90;;;;;;5019063;28;20158;-82
2021/01/04 01:44:12;;;;;;;1999.90;999.90;;;3.20;99.90;;;;;;5019573;28;20158;-83
2021/01/04 01:46:48;;;;;;;1999.90;999.90;;;3.20;99.90;;;;;;4971009;28;20215;-83
2021/01/04 01:49:20;;;;;;;1999.90;999.90;;;3.10;99.90;;;;;;5019070;28;20169;-83
2021/01/04 01:52:12;;;;;;;1999.90;999.90;;;3.10;99.90;;;;;;5001825;28;20153;-83
2021/01/04 01:54:50;;;;;;;1999.90;999.90;;;3.20;99.90;;;;;;5019055;28;20233;-85
2021/01/04 01:57:24;;;;;;;1999.90;999.90;;;3.20;99.90;;;;;;5019283;28;20146;-83
2021/01/04 02:00:11;;;;;;;1999.90;999.90;;;3.00;99.90;;;;;;5019290;28;20684;-83
2021/01/04 02:02:43;;;;;;;1999.90;999.90;;;2.90;99.90;;;;;;5019208;28;20157;-83
2021/01/04 02:05:23;;;;;;;1999.90;999.90;;;3.00;99.90;;;;;;5019914;28;20545;-83
2021/01/04 02:07:53;;;;;;;1999.90;999.90;;;3.10;99.90;;;;;;5019011;28;20173;-83
2021/01/04 02:10:24;;;;;;;1999.90;999.90;;;3.20;99.90;;;;;;5001827;28;20169;-83
2021/01/04 02:12:57;;;;;;;1999.90;999.90;;;3.20;99.90;;;;;;5002059;28;20166;-83
2021/01/04 02:15:41;;;;;;;1999.90;999.90;;;3.20;99.90;;;;;;5002134;28;20208;-83
2021/01/04 02:18:25;;;;;;;1999.90;999.90;;;3.20;99.90;;;;;;5000884;28;20161;-83
2021/01/04 02:21:08;;;;;;;1999.90;999.90;;;3.30;99.90;;;;;;5001146;28;20150;-83
2021/01/04 02:24:06;;;;;;;1999.90;999.90;;;3.20;99.90;;;;;;5001336;28;20174;-84
2021/01/04 02:26:32;;;;;;;1999.90;999.90;;;3.20;99.90;;;;;;5018838;28;20703;-83
2021/01/04 02:29:08;;;;;;;1999.90;999.90;;;3.10;99.90;;;;;;5018662;28;20170;-83
2021/01/04 02:31:37;;;;;;;1999.90;999.90;;;3.00;99.90;;;;;;5019072;28;20512;-83
2021/01/04 02:34:06;;;;;;;1999.90;999.90;;;3.00;99.90;;;;;;5001843;28;20166;-84
2021/01/04 02:36:47;;;;;;;1999.90;999.90;;;3.00;99.90;;;;;;5019163;28;20168;-84
2021/01/04 02:39:48;;;;;;;1999.90;999.90;;;3.00;99.90;;;;;;5019670;28;20156;-84
2021/01/04 02:42:20;;;;;;;1999.90;999.90;;;3.00;99.90;;;;;;4999012;28;20169;-84
2021/01/04 02:44:47;;;;;;;1999.90;999.90;;;3.10;99.90;;;;;;5005202;28;20198;-84
2021/01/04 02:47:40;;;;;;;1999.90;999.90;;;3.00;99.90;;;;;;5023119;28;20514;-84
2021/01/04 02:50:31;;;;;;;1999.90;999.90;;;3.00;99.90;;;;;;5023524;28;20162;-83
2021/01/04 02:53:18;;;;;;;1999.90;999.90;;;3.00;99.90;;;;;;5005294;28;20158;-84
2021/01/04 02:56:05;;;;;;;1999.90;999.90;;;3.10;99.90;;;;;;5005277;28;20162;-84
2021/01/04 02:59:05;;;;;;;1999.90;999.90;;;3.10;99.90;;;;;;5005202;28;20161;-84
2021/01/04 03:01:43;;;;;;;1999.90;999.90;;;3.00;99.90;;;;;;5022548;28;20170;-84
2021/01/04 03:04:15;;;;;;;1999.90;999.90;;;2.90;99.90;;;;;;5168943;23;20613;-85
2021/01/04 03:07:32;;;;;;;1999.90;999.90;;;2.90;99.90;;;;;;5007985;28;20183;-85
2021/01/04 03:10:01;;;;;;;1999.90;999.90;;;2.90;99.90;;;;;;4950442;29;20227;-85
2021/01/04 03:12:32;;;;;;;1999.90;999.90;;;2.90;99.90;;;;;;5000003;28;20262;-85
2021/01/04 03:15:07;;;;;;;1999.90;999.90;;;3.00;99.90;;;;;;5006799;28;20190;-85
2021/01/04 03:17:47;;;;;;;1999.90;999.90;;;3.10;99.90;;;;;;5008308;28;20174;-85
2021/01/04 03:20:20;;;;;;;1999.90;999.90;;;3.00;99.90;;;;;;5006991;28;20178;-85
2021/01/04 03:22:48;;;;;;;1999.90;999.90;;;3.10;99.90;;;;;;5007475;28;20170;-85
2021/01/04 03:25:18;;;;;;;1999.90;999.90;;;3.10;99.90;;;;;;5007190;28;20202;-85
2021/01/04 03:27:44;;;;;;;1999.90;999.90;;;3.10;99.90;;;;;;5006292;28;20158;-85
2021/01/04 03:30:10;;;;;;;1999.90;999.90;;;3.10;99.90;;;;;;5007958;28;20168;-85
2021/01/04 03:32:37;;;;;;;1999.90;999.90;;;3.00;99.90;;;;;;4989906;28;20924;-85
2021/01/04 03:35:05;;;;;;;1999.90;999.90;;;2.80;99.90;;;;;;5007710;28;20175;-85
2021/01/04 03:37:30;;;;;;;1999.90;999.90;;;2.80;99.90;;;;;;5007435;28;20166;-85
2021/01/04 03:39:56;;;;;;;1999.90;999.90;;;2.80;99.90;;;;;;5007106;28;20272;-85
2021/01/04 03:42:22;;;;;;;1999.90;999.90;;;2.90;99.90;;;;;;4993027;28;20189;-85
2021/01/04 03:44:47;;;;;;;1999.90;999.90;;;2.90;99.90;;;;;;5006929;28;20685;-85
2021/01/04 03:47:13;;;;;;;1999.90;999.90;;;2.90;99.90;;;;;;4989135;28;20167;-85
2021/01/04 03:49:39;;;;;;;1999.90;999.90;;;3.00;99.90;;;;;;5006676;28;20198;-85
2021/01/04 03:52:04;;;;;;;1999.90;999.90;;;3.00;99.90;;;;;;5006941;28;20201;-85
2021/01/04 03:54:30;;;;;;;1999.90;999.90;;;3.00;99.90;;;;;;4988827;28;20175;-85
2021/01/04 03:56:58;;;;;;;1999.90;999.90;;;2.80;99.90;;;;;;4989426;28;20170;-85
2021/01/04 03:59:24;;;;;;;1999.90;999.90;;;2.80;99.90;;;;;;5006647;28;20166;-85
2021/01/04 04:01:56;;;;;;;1999.90;999.90;;;2.90;99.90;;;;;;5007261;28;20230;-84
2021/01/04 04:04:24;;;;;;;1999.90;999.90;;;2.90;99.90;;;;;;5008729;28;20185;-85
2021/01/04 04:06:50;;;;;;;1999.90;999.90;;;2.90;99.90;;;;;;5008993;28;20190;-85
2021/01/04 04:09:18;;;;;;;1999.90;999.90;;;2.90;99.90;;;;;;4990218;28;20166;-85
2021/01/04 04:11:43;;;;;;;1999.90;999.90;;;2.90;99.90;;;;;;5007368;28;20159;-85
2021/01/04 04:14:10;;;;;;;1999.90;999.90;;;2.90;99.90;;;;;;5007783;28;20171;-85
2021/01/04 04:16:37;;;;;;;1999.90;999.90;;;2.90;99.90;;;;;;4989229;28;20163;-85
2021/01/04 04:19:03;;;;;;;1999.90;999.90;;;2.90;99.90;;;;;;5006588;28;20158;-85
2021/01/04 04:21:28;;;;;;;1999.90;999.90;;;2.90;99.90;;;;;;5006293;28;20178;-85
2021/01/04 04:23:54;;;;;;;1999.90;999.90;;;2.90;99.90;;;;;;5006235;28;20416;-85
2021/01/04 04:26:27;;;;;;;1999.90;999.90;;;2.90;99.90;;;;;;5006271;28;20206;-85
2021/01/04 04:28:53;;;;;;;1999.90;999.90;;;2.90;99.90;;;;;;4988701;28;20183;-85
2021/01/04 04:31:19;;;;;;;1999.90;999.90;;;2.90;99.90;;;;;;5005486;28;20167;-85
2021/01/04 04:33:46;;;;;;;1999.90;999.90;;;2.90;99.90;;;;;;5006028;28;20217;-85
2021/01/04 04:36:22;;;;;;;1999.90;999.90;;;2.90;99.90;;;;;;5005769;28;20206;-85
2021/01/04 04:38:48;;;;;;;1999.90;999.90;;;3.00;99.90;;;;;;4988508;28;20248;-85
2021/01/04 04:41:31;;;;;;;1999.90;999.90;;;2.90;99.90;;;;;;5005742;28;20166;-85
2021/01/04 04:44:11;;;;;;;1999.90;999.90;;;2.80;99.90;;;;;;5005431;28;20566;-85
2021/01/04 04:46:56;;;;;;;1999.90;999.90;;;2.90;99.90;;;;;;4988475;28;20174;-85
2021/01/04 04:49:52;;;;;;;1999.90;999.90;;;2.90;99.90;;;;;;5005353;28;20230;-85
2021/01/04 04:52:44;;;;;;;1999.90;999.90;;;2.80;99.90;;;;;;4987924;28;20169;-85
2021/01/04 04:55:47;;;;;;;1999.90;999.90;;;2.80;99.90;;;;;;5005410;28;20177;-85
2021/01/04 04:58:31;;;;;;;1999.90;999.90;;;2.70;99.90;;;;;;5005992;28;20648;-85
2021/01/04 05:01:20;;;;;;;1999.90;999.90;;;2.80;99.90;;;;;;4988278;28;20214;-85
2021/01/04 05:04:13;;;;;;;1999.90;999.90;;;2.70;99.90;;;;;;4988184;28;20230;-85
2021/01/04 05:06:48;;;;;;;1999.90;999.90;;;2.70;99.90;;;;;;5005938;28;20181;-85
2021/01/04 05:09:46;;;;;;;1999.90;999.90;;;2.80;99.90;;;;;;4988296;28;20541;-85
2021/01/04 05:12:18;;;;;;;1999.90;999.90;;;2.80;99.90;;;;;;5002106;28;20183;-85
2021/01/04 05:15:18;;;;;;;1999.90;999.90;;;2.70;99.90;;;;;;5005294;28;20206;-85
2021/01/04 05:18:06;;;;;;;1999.90;999.90;;;2.70;99.90;;;;;;5005320;28;20166;-85
2021/01/04 05:21:11;;;;;;;1999.90;999.90;;;2.70;99.90;;;;;;4987921;28;20163;-85
2021/01/04 05:24:02;;;;;;;1999.90;999.90;;;2.80;99.90;;;;;;5004950;28;20162;-85
2021/01/04 05:27:03;;;;;;;1999.90;999.90;;;2.80;99.90;;;;;;5005346;28;20178;-85
2021/01/04 05:29:38;;;;;;;1999.90;999.90;;;2.70;99.90;;;;;;4982947;28;20272;-85
2021/01/04 05:32:41;;;;;;;1999.90;999.90;;;2.70;99.90;;;;;;5004925;28;20206;-85
2021/01/04 05:35:09;;;;;;;1999.90;999.90;;;2.80;99.90;;;;;;4985420;28;20178;-85
2021/01/04 05:37:51;;;;;;;1999.90;999.90;;;2.70;99.90;;;;;;5004993;28;20166;-85
2021/01/04 05:40:42;;;;;;;1999.90;999.90;;;2.80;99.90;;;;;;4988057;28;20194;-85
2021/01/04 05:43:38;;;;;;;1999.90;999.90;;;2.80;99.90;;;;;;5061588;23;20696;-84
2021/01/04 05:46:19;;;;;;;1999.90;999.90;;;2.80;99.90;;;;;;5020760;28;20186;-84
2021/01/04 05:49:22;;;;;;;1999.90;999.90;;;2.90;99.90;;;;;;5020997;28;20153;-84
2021/01/04 05:51:50;;;;;;;1999.90;999.90;;;2.80;99.90;;;;;;5020656;28;20157;-84
2021/01/04 05:54:29;;;;;;;1999.90;999.90;;;2.90;99.90;;;;;;5021523;28;20593;-84
2021/01/04 05:57:15;;;;;;;1999.90;999.90;;;2.90;99.90;;;;;;5020868;28;20237;-84
2021/01/04 05:59:51;;;;;;;1999.90;999.90;;;2.80;99.90;;;;;;5021429;28;20200;-84
2021/01/04 06:02:28;;;;;;;1999.90;999.90;;;2.80;99.90;;;;;;5021713;28;20161;-84
2021/01/04 06:05:11;;;;;;;1999.90;999.90;;;2.90;99.90;;;;;;5021468;28;20182;-84
2021/01/04 06:07:39;;;;;;;1999.90;999.90;;;2.90;99.90;;;;;;5021471;28;20157;-84
2021/01/04 06:10:08;;;;;;;1999.90;999.90;;;2.80;99.90;;;;;;5021271;28;20161;-84
2021/01/04 06:12:40;;;;;;;1999.90;999.90;;;2.90;99.90;;;;;;5003512;28;20170;-85
2021/01/04 06:15:08;;;;;;;1999.90;999.90;;;3.00;99.90;;;;;;5004524;28;20169;-85
2021/01/04 06:17:43;;;;;;;1999.90;999.90;;;2.80;99.90;;;;;;5020797;28;20657;-84
2021/01/04 06:20:56;;;;;;;1999.90;999.90;;;2.80;99.90;;;;;;5021923;28;20170;-85
2021/01/04 06:23:32;;;;;;;1999.90;999.90;;;2.90;99.90;;;;;;5011895;28;20193;-84
2021/01/04 06:26:20;;;;;;;1999.90;999.90;;;3.00;99.90;;;;;;5021143;28;20234;-84
2021/01/04 06:28:56;;;;;;;1999.90;999.90;;;2.80;99.90;;;;;;5002423;28;20188;-84
2021/01/04 06:31:52;;;;;;;1999.90;999.90;;;2.90;99.90;;;;;;5019756;28;20154;-84
2021/01/04 06:34:25;;;;;;;1999.90;999.90;;;2.80;99.90;;;;;;5021179;28;20178;-84
2021/01/04 06:37:01;;;;;;;1999.90;999.90;;;3.00;99.90;;;;;;5021111;28;20158;-84
2021/01/04 06:39:36;;;;;;;1999.90;999.90;;;3.10;99.90;;;;;;5021167;28;20150;-84
2021/01/04 06:42:15;;;;;;;1999.90;999.90;;;3.00;99.90;;;;;;5021131;28;20150;-84
2021/01/04 06:45:12;;;;;;;1999.90;999.90;;;3.00;99.90;;;;;;5021982;28;20190;-86
2021/01/04 06:47:48;;;;;;;1999.90;999.90;;;2.90;99.90;;;;;;5004641;28;20186;-84
2021/01/04 06:50:38;;;;;;;1999.90;999.90;;;2.90;99.90;;;;;;5021154;28;20232;-84
2021/01/04 06:53:32;;;;;;;1999.90;999.90;;;3.00;99.90;;;;;;5020214;28;20151;-84
2021/01/04 06:56:44;;;;;;;1999.90;999.90;;;3.00;99.90;;;;;;4986295;28;20170;-84
2021/01/04 06:59:20;;;;;;;1999.90;999.90;;;3.00;99.90;;;;;;4977693;28;20178;-84
2021/01/04 07:02:14;;;;;;;1999.90;999.90;;;3.00;99.90;;;;;;5013242;28;20253;-84
2021/01/04 07:05:02;;;;;;;1999.90;999.90;;;3.00;99.90;;;;;;5019452;28;20197;-85
2021/01/04 07:07:46;;;;;;;1999.90;999.90;;;3.00;99.90;;;;;;5018683;28;20177;-84
2021/01/04 07:10:14;;;;;;;1999.90;999.90;;;3.00;99.90;;;;;;5000998;28;20178;-84
2021/01/04 07:12:52;;;;;;;1999.90;999.90;;;3.10;99.90;;;;;;5019011;28;20169;-84
2021/01/04 07:15:26;;;;;;;1999.90;999.90;;;3.10;99.90;;;;;;5000922;28;20173;-84
2021/01/04 07:18:23;;;;;;;1999.90;999.90;;;3.10;99.90;;;;;;5020704;28;20155;-85
2021/01/04 07:20:56;;;;;;;1999.90;999.90;;;3.20;99.90;;;;;;5003702;28;20193;-84
2021/01/04 07:23:56;;;;;;;1999.90;999.90;;;3.10;99.90;;;;;;5001176;28;20178;-84
2021/01/04 07:26:50;;;;;;;1999.90;999.90;;;3.20;99.90;;;;;;5019276;28;20182;-84
2021/01/04 07:29:34;;;;;;;1999.90;999.90;;;3.20;99.90;;;;;;5021590;28;20178;-84
2021/01/04 07:35:43;;;;;;;1999.90;999.90;;;3.20;99.90;;;;;;4947956;29;20202;-84
2021/01/04 07:38:21;;;;;;;1999.90;999.90;;;3.20;99.90;;;;;;5025483;28;20680;-84
2021/01/04 07:40:57;;;;;;;1999.90;999.90;;;3.20;99.90;;;;;;5022085;28;20161;-84
2021/01/04 07:43:23;;;;;;;1999.90;999.90;;;3.20;99.90;;;;;;5021493;28;20192;-84
2021/01/04 07:46:14;;;;;;;1999.90;999.90;;;3.20;99.90;;;;;;5003432;28;20194;-84
2021/01/04 07:49:01;;;;;;;1999.90;999.90;;;3.20;99.90;;;;;;5003764;28;20177;-84
2021/01/04 07:52:22;;;;;;;1999.90;999.90;;;3.20;99.90;;;;;;5005274;28;20256;-84
2021/01/04 07:55:26;;;;;;;1999.90;999.90;;;3.20;99.90;;;;;;5020059;28;20224;-84
2021/01/04 07:58:14;;;;;;;1999.90;999.90;;;3.30;99.90;;;;;;4981643;28;20190;-84
2021/01/04 08:00:54;;;;;;;1999.90;999.90;;;3.30;99.90;;;;;;4982448;28;20167;-84
2021/01/04 08:03:51;;;;;;;1999.90;999.90;;;3.30;99.90;;;;;;4993798;28;20185;-85
2021/01/04 08:06:53;;;;;;;1999.90;999.90;;;3.30;99.90;;;;;;5005155;28;20672;-85
2021/01/04 08:09:32;;;;;;;1999.90;999.90;;;3.30;99.90;;;;;;5023179;28;20558;-84
2021/01/04 08:12:25;;;;;;;1999.90;999.90;;;3.30;99.90;;;;;;5022047;28;20161;-84
2021/01/04 08:15:18;;;;;;;1999.90;999.90;;;3.30;99.90;;;;;;5022436;28;20237;-84
2021/01/04 08:17:57;;;;;;;1999.90;999.90;;;3.30;99.90;;;;;;5022314;28;20154;-84
2021/01/04 08:20:23;;;;;;;1999.90;999.90;;;3.20;99.90;;;;;;5022540;28;20150;-84
2021/01/04 08:23:06;;;;;;;1999.90;999.90;;;3.30;99.90;;;;;;5020653;28;20205;-84
2021/01/04 08:25:35;;;;;;;1999.90;999.90;;;3.30;99.90;;;;;;5020730;28;20231;-84
2021/01/04 08:28:16;;;;;;;1999.90;999.90;;;3.20;99.90;;;;;;5003065;28;20170;-84
2021/01/04 08:31:14;;;;;;;1999.90;999.90;;;3.40;99.90;;;;;;5002955;28;20162;-84
2021/01/04 08:34:06;;;;;;;1999.90;999.90;;;3.40;99.90;;;;;;5020762;28;20149;-84
2021/01/04 08:36:52;;;;;;;1999.90;999.90;;;3.40;99.90;;;;;;4998791;28;20205;-83
2021/01/04 08:39:21;;;;;;;1999.90;999.90;;;3.30;99.90;;;;;;5002782;28;20176;-84
2021/01/04 08:42:17;;;;;;;1999.90;999.90;;;3.30;99.90;;;;;;5020867;28;20169;-84
2021/01/04 08:44:57;;;;;;;1999.90;999.90;;;3.30;99.90;;;;;;5017333;28;20205;-83
2021/01/04 08:47:30;;;;;;;1999.90;999.90;;;3.30;99.90;;;;;;5020980;28;20154;-84
2021/01/04 08:50:22;;;;;;;1999.90;999.90;;;3.30;99.90;;;;;;5020514;28;20165;-85
2021/01/04 08:52:50;;;;;;;1999.90;999.90;;;3.30;99.90;;;;;;5016452;28;20241;-84
2021/01/04 08:55:31;;;;;;;1999.90;999.90;;;3.40;99.90;;;;;;5021856;28;20166;-85
2021/01/04 08:58:01;;;;;;;1999.90;999.90;;;3.40;99.90;;;;;;5021069;28;20173;-84
2021/01/04 09:00:30;;;;;;;1999.90;999.90;;;3.30;99.90;;;;;;5002851;28;20224;-84
2021/01/04 09:02:56;;;;;;;1999.90;999.90;;;3.40;99.90;;;;;;5002466;28;20672;-84
2021/01/04 09:05:35;;;;;;;1999.90;999.90;;;3.30;99.90;;;;;;5019791;28;20196;-84
2021/01/04 09:08:03;;;;;;;1999.90;999.90;;;3.30;99.90;;;;;;5002612;28;20165;-85
2021/01/04 09:10:49;;;;;;;1999.90;999.90;;;3.40;99.90;;;;;;5002273;28;20189;-85
2021/01/04 09:13:29;;;;;;;1999.90;999.90;;;3.30;99.90;;;;;;5003215;28;20166;-84
2021/01/04 09:15:55;;;;;;;1999.90;999.90;;;3.40;99.90;;;;;;5003351;28;20208;-85
2021/01/04 09:18:35;;;;;;;1999.90;999.90;;;3.30;99.90;;;;;;4999938;28;20629;-84
2021/01/04 09:21:06;;;;;;;1999.90;999.90;;;3.30;99.90;;;;;;5018438;28;20177;-85
2021/01/04 09:23:37;;;;;;;1999.90;999.90;;;3.30;99.90;;;;;;5002898;28;20166;-85
2021/01/04 09:26:02;;;;;;;1999.90;999.90;;;3.30;99.90;;;;;;5019085;28;20185;-85
2021/01/04 09:28:41;;;;;;;1999.90;999.90;;;3.40;99.90;;;;;;5002024;28;20170;-84
2021/01/04 09:31:16;;;;;;;1999.90;999.90;;;3.50;99.90;;;;;;5020127;28;20152;-84
2021/01/04 09:33:44;;;;;;;1999.90;999.90;;;3.50;99.90;;;;;;4999771;28;20208;-85
2021/01/04 09:36:10;;;;;;;1999.90;999.90;;;3.60;99.90;;;;;;5019641;28;20229;-85
2021/01/04 09:38:36;;;;;;;1999.90;999.90;;;3.70;99.90;;;;;;5001897;28;20197;-84
2021/01/04 09:41:09;;;;;;;1999.90;999.90;;;3.70;99.90;;;;;;4999632;28;20173;-84
2021/01/04 09:43:37;;;;;;;1999.90;999.90;;;3.70;99.90;;;;;;5017798;28;20428;-84
2021/01/04 09:46:12;;;;;;;1999.90;999.90;;;3.80;99.90;;;;;;5001417;28;20189;-83
2021/01/04 09:48:54;;;;;;;1999.90;999.90;;;3.70;99.90;;;;;;5003435;28;20197;-84
2021/01/04 09:51:41;;;;;;;1999.90;999.90;;;3.80;99.90;;;;;;5001434;28;20162;-84
2021/01/04 09:54:12;;;;;;;1999.90;999.90;;;3.80;99.90;;;;;;5016959;28;20142;-84
2021/01/04 09:56:41;;;;;;;1999.90;999.90;;;3.80;99.90;;;;;;5016976;28;20181;-84
2021/01/04 09:59:23;;;;;;;1999.90;999.90;;;3.90;99.90;;;;;;4998518;28;20173;-84
2021/01/04 10:01:58;;;;;;;1999.90;999.90;;;3.90;99.90;;;;;;5016293;28;20518;-84
2021/01/04 10:04:32;;;;;;;1999.90;999.90;;;4.00;99.90;;;;;;5001656;28;20161;-84
2021/01/04 10:07:03;;;;;;;1999.90;999.90;;;4.00;99.90;;;;;;5020202;28;20149;-84
2021/01/04 10:09:35;;;;;;;1999.90;999.90;;;4.00;99.90;;;;;;5020326;28;20150;-84
2021/01/04 10:12:05;;;;;;;1999.90;999.90;;;4.00;99.90;;;;;;5019902;28;20158;-84
2021/01/04 10:14:32;;;;;;;1999.90;999.90;;;4.00;99.90;;;;;;5002243;28;20174;-84
2021/01/04 10:17:01;;;;;;;1999.90;999.90;;;4.00;99.90;;;;;;5003081;28;20172;-84
2021/01/04 10:19:50;;;;;;;1999.90;999.90;;;4.00;99.90;;;;;;5002228;28;20201;-84
2021/01/04 10:22:25;;;;;;;1999.90;999.90;;;4.00;99.90;;;;;;5020092;28;20151;-84
2021/01/04 10:24:58;;;;;;;1999.90;999.90;;;4.00;99.90;;;;;;5019736;28;20180;-84
2021/01/04 10:27:26;;;;;;;1999.90;999.90;;;4.00;99.90;;;;;;5021237;28;20157;-84
2021/01/04 10:29:55;;;;;;;1999.90;999.90;;;3.90;99.90;;;;;;5020154;28;20241;-85
2021/01/04 10:32:26;;;;;;;1999.90;999.90;;;3.90;99.90;;;;;;5002756;28;20177;-84
2021/01/04 10:34:53;;;;;;;1999.90;999.90;;;4.00;99.90;;;;;;5019128;28;20176;-84
2021/01/04 10:37:26;;;;;;;1999.90;999.90;;;4.00;99.90;;;;;;5001307;28;20601;-84
2021/01/04 10:39:59;;;;;;;1999.90;999.90;;;4.00;99.90;;;;;;5019805;28;20158;-84
2021/01/04 10:42:25;;;;;;;1999.90;999.90;;;4.00;99.90;;;;;;5000153;28;20169;-84
2021/01/04 10:45:26;;;;;;;1999.90;999.90;;;4.00;99.90;;;;;;5018211;28;20221;-84
2021/01/04 10:48:04;;;;;;;1999.90;999.90;;;4.00;99.90;;;;;;4998104;28;20196;-82
2021/01/04 10:50:36;;;;;;;1999.90;999.90;;;4.10;99.90;;;;;;5000297;28;20527;-83
2021/01/04 10:53:42;;;;;;;1999.90;999.90;;;4.10;99.90;;;;;;5000773;28;20644;-85
2021/01/04 10:56:22;;;;;;;1999.90;999.90;;;4.10;99.90;;;;;;4989555;28;20174;-84
2021/01/04 10:59:13;;;;;;;1999.90;999.90;;;4.00;99.90;;;;;;5018388;28;20154;-84
2021/01/04 11:01:42;;;;;;;1999.90;999.90;;;4.00;99.90;;;;;;5018921;28;20163;-84
2021/01/04 11:04:13;;;;;;;1999.90;999.90;;;4.00;99.90;;;;;;5021140;28;20166;-84
2021/01/04 11:06:42;;;;;;;1999.90;999.90;;;4.00;99.90;;;;;;5004652;28;20296;-84
2021/01/04 11:09:20;;;;;;;1999.90;999.90;;;4.10;99.90;;;;;;5021436;28;20170;-83
2021/01/04 11:12:06;;;;;;;1999.90;999.90;;;4.10;99.90;;;;;;5002224;28;20162;-84
2021/01/04 11:15:00;;;;;;;1999.90;999.90;;;4.20;99.90;;;;;;5018855;28;20181;-84
2021/01/04 11:20:49;;;;;;;1999.90;999.90;;;3.90;99.90;;;;;;4936062;29;20173;-84
2021/01/04 11:23:46;;;;;;;1999.90;999.90;;;4.10;99.90;;;;;;5008864;28;20178;-83
2021/01/04 11:29:14;;;;;;;1999.90;999.90;;;4.10;99.90;;;;;;5020884;28;20153;-84
2021/01/04 11:31:40;;;;;;;1999.90;999.90;;;4.10;99.90;;;;;;5005018;28;20166;-85
2021/01/04 11:34:06;;;;;;;1999.90;999.90;;;4.10;99.90;;;;;;5024180;28;20162;-85
2021/01/04 11:36:33;;;;;;;1999.90;999.90;;;4.10;99.90;;;;;;5005844;28;20170;-85
2021/01/04 11:39:00;;;;;;;1999.90;999.90;;;4.10;99.90;;;;;;5007263;28;20237;-84
2021/01/04 11:41:25;;;;;;;1999.90;999.90;;;4.10;99.90;;;;;;5005908;28;20178;-85
2021/01/04 11:43:51;;;;;;;1999.90;999.90;;;4.10;99.90;;;;;;5006223;28;20186;-85
2021/01/04 11:46:18;;;;;;;1999.90;999.90;;;4.20;99.90;;;;;;5023835;28;20189;-85
2021/01/04 11:48:50;;;;;;;1999.90;999.90;;;4.20;99.90;;;;;;5005519;28;20169;-85
2021/01/04 11:51:20;;;;;;;1999.90;999.90;;;4.10;99.90;;;;;;5005160;28;20536;-85
2021/01/04 11:53:50;;;;;;;1999.90;999.90;;;4.20;99.90;;;;;;5023239;28;20147;-85
2021/01/04 11:56:17;;;;;;;1999.90;999.90;;;4.20;99.90;;;;;;5023080;28;20169;-84
2021/01/04 11:58:43;;;;;;;1999.90;999.90;;;4.20;99.90;;;;;;5022293;28;20220;-85
2021/01/04 12:01:08;;;;;;;1999.90;999.90;;;4.20;99.90;;;;;;5021507;28;20166;-83
2021/01/04 12:03:34;;;;;;;1999.90;999.90;;;4.10;99.90;;;;;;5018219;28;20648;-84
2021/01/04 12:06:00;;;;;;;1999.90;999.90;;;4.10;99.90;;;;;;5000216;28;20193;-84
2021/01/04 12:08:26;;;;;;;1999.90;999.90;;;4.10;99.90;;;;;;4999935;28;20248;-84
2021/01/04 12:10:51;;;;;;;1999.90;999.90;;;4.10;99.90;;;;;;5022389;28;20447;-84
2021/01/04 12:13:17;;;;;;;1999.90;999.90;;;4.10;99.90;;;;;;5020933;28;20578;-83
2021/01/04 12:15:43;;;;;;;1999.90;999.90;;;4.10;99.90;;;;;;5106257;23;20224;-85
2021/01/04 12:18:09;;;;;;;1999.90;999.90;;;4.10;99.90;;;;;;5018914;28;20459;-85
2021/01/04 12:20:35;;;;;;;1999.90;999.90;;;4.10;99.90;;;;;;5017475;28;20158;-84
2021/01/04 12:23:00;;;;;;;1999.90;999.90;;;4.10;99.90;;;;;;5019170;28;20488;-85
2021/01/04 12:25:26;;;;;;;1999.90;999.90;;;4.20;99.90;;;;;;5020339;28;20197;-85
2021/01/04 12:27:52;;;;;;;1999.90;999.90;;;4.20;99.90;;;;;;5019864;28;20173;-85
2021/01/04 12:30:18;;;;;;;1999.90;999.90;;;4.20;99.90;;;;;;5020069;28;20544;-85
2021/01/04 12:32:45;;;;;;;1999.90;999.90;;;4.20;99.90;;;;;;5001885;28;20197;-85
2021/01/04 12:35:11;;;;;;;1999.90;999.90;;;4.30;99.90;;;;;;5019165;28;20176;-85
2021/01/04 12:37:38;;;;;;;1999.90;999.90;;;4.30;99.90;;;;;;5001837;28;20174;-84
2021/01/04 12:40:11;;;;;;;1999.90;999.90;;;4.30;99.90;;;;;;5019383;28;20261;-85
2021/01/04 12:42:37;;;;;;;1999.90;999.90;;;4.30;99.90;;;;;;5000280;28;20166;-85
2021/01/04 12:45:05;;;;;;;1999.90;999.90;;;4.30;99.90;;;;;;5016648;28;20240;-84
2021/01/04 12:47:31;;;;;;;1999.90;999.90;;;4.30;99.90;;;;;;4999773;28;20170;-84
2021/01/04 12:49:57;;;;;;;1999.90;999.90;;;4.30;99.90;;;;;;5018410;28;20637;-85
2021/01/04 12:52:31;;;;;;;1999.90;999.90;;;4.20;99.90;;;;;;5018963;28;20168;-85
2021/01/04 12:54:57;;;;;;;1999.90;999.90;;;4.30;99.90;;;;;;5002384;28;20160;-84
2021/01/04 12:57:24;;;;;;;1999.90;999.90;;;4.30;99.90;;;;;;5020838;28;20630;-85
2021/01/04 12:59:50;;;;;;;1999.90;999.90;;;4.30;99.90;;;;;;5016100;28;20181;-85
2021/01/04 13:02:18;;;;;;;1999.90;999.90;;;4.30;99.90;;;;;;5001675;28;20222;-84
2021/01/04 13:04:45;;;;;;;1999.90;999.90;;;4.40;99.90;;;;;;5019003;28;20291;-84
2021/01/04 13:07:12;;;;;;;1999.90;999.90;;;4.40;99.90;;;;;;5019103;28;20656;-85
2021/01/04 13:09:39;;;;;;;1999.90;999.90;;;4.40;99.90;;;;;;5002616;28;20228;-84